BIND weather

Nýjidalur Airport
Nýjidalur, Southern Region, Iceland

Public forecast

Using degrees Celsius for public forecast. Weather courtesy of forecast.io.

Closest aviation weather report (METAR) to Nýjidalur Airport

Closest report is Akureyri Airport, 56.4 nm (104.5 km) N. Retrieved 2020/02/19 01:00 UTC (6 minutes ago):

BIAR 190100Z 18006KT 9999 FEW036 M03/M04 Q0995

Closest aviation forecast (TAF) to Nýjidalur Airport

Closest forecast is Akureyri Airport, 56.4 nm (104.5 km) N. Retrieved 2020-02-19 03:21 UTC (0 seconds ago):

TAF TAF BIAR 190118Z 1903/2003 16005KT 9999 BKN030 OVC045 TX02/1924Z TNM04/1903Z BECMG 1916/1918 08017G27KT 5000 SN OVC015 BECMG 1918/1921 05027G40KT 0800 BLSN OVC005